createdAt,value
2023-11-26T00:00:00.490Z,3.70
2023-11-26T00:02:27.604Z,3.97
2023-11-26T00:04:54.675Z,4.35
2023-11-26T00:07:21.708Z,3.80
2023-11-26T00:09:48.766Z,3.75
2023-11-26T00:12:15.694Z,3.80
2023-11-26T00:14:42.847Z,3.80
2023-11-26T00:17:09.807Z,3.70
2023-11-26T00:19:36.757Z,3.83
2023-11-26T00:22:05.336Z,3.70
2023-11-26T00:24:32.323Z,4.07
2023-11-26T00:26:59.232Z,3.45
2023-11-26T00:29:26.225Z,3.92
2023-11-26T00:31:53.354Z,3.83
2023-11-26T00:34:20.339Z,3.70
2023-11-26T00:36:47.731Z,4.05
2023-11-26T00:39:14.971Z,3.80
2023-11-26T00:41:45.528Z,4.03
2023-11-26T00:44:12.641Z,3.85
2023-11-26T00:46:39.585Z,4.10
2023-11-26T00:49:08.106Z,3.50
2023-11-26T00:51:35.161Z,4.05
2023-11-26T00:54:02.211Z,3.67
2023-11-26T00:56:29.266Z,3.75
2023-11-26T00:58:56.245Z,3.95
2023-11-26T01:01:23.376Z,3.90
2023-11-26T01:03:50.479Z,4.05
2023-11-26T01:06:17.525Z,3.42
2023-11-26T01:08:44.475Z,3.60
2023-11-26T01:11:14.581Z,4.10
2023-11-26T01:13:42.298Z,4.28
2023-11-26T01:16:10.783Z,3.75
2023-11-26T01:18:39.596Z,4.30
2023-11-26T01:21:07.459Z,3.80
2023-11-26T01:23:34.463Z,3.83
2023-11-26T01:26:01.450Z,4.00
2023-11-26T01:28:28.378Z,3.83
2023-11-26T01:30:55.391Z,3.75
2023-11-26T01:33:22.437Z,3.40
2023-11-26T01:35:49.319Z,3.72
2023-11-26T01:38:16.541Z,4.07
2023-11-26T01:40:43.495Z,3.80
2023-11-26T01:43:10.404Z,4.45
2023-11-26T01:45:37.415Z,4.40
2023-11-26T01:48:06.146Z,4.07
2023-11-26T01:50:33.534Z,4.13
2023-11-26T01:53:01.169Z,4.05
2023-11-26T01:55:28.364Z,3.97
2023-11-26T01:57:55.422Z,4.00
2023-11-26T02:00:23.094Z,3.90
2023-11-26T02:02:50.520Z,3.83
2023-11-26T02:05:18.973Z,4.32
2023-11-26T02:07:46.225Z,3.80
2023-11-26T02:10:13.404Z,4.00
2023-11-26T02:12:40.351Z,3.65
2023-11-26T02:15:08.154Z,4.00
2023-11-26T02:17:36.965Z,3.80
2023-11-26T02:20:05.840Z,3.80
2023-11-26T02:22:34.076Z,3.90
2023-11-26T02:25:01.183Z,4.13
2023-11-26T02:27:28.141Z,3.72
2023-11-26T02:29:55.163Z,3.60
2023-11-26T02:32:22.659Z,3.83
2023-11-26T02:34:49.802Z,3.72
2023-11-26T02:37:16.764Z,3.35
2023-11-26T02:39:45.053Z,3.70
2023-11-26T02:42:13.545Z,3.63
2023-11-26T02:44:40.514Z,3.60
2023-11-26T02:47:09.053Z,3.47
2023-11-26T02:49:36.123Z,3.53
2023-11-26T02:52:04.546Z,3.72
2023-11-26T02:54:31.379Z,3.22
2023-11-26T02:56:59.264Z,3.80
2023-11-26T02:59:26.350Z,3.30
2023-11-26T03:01:59.215Z,3.72
2023-11-26T03:04:28.169Z,3.63
2023-11-26T03:06:56.084Z,3.67
2023-11-26T03:09:34.759Z,3.40
2023-11-26T03:12:20.572Z,3.70
2023-11-26T03:14:49.728Z,3.50
2023-11-26T03:17:16.825Z,3.33
2023-11-26T03:19:46.536Z,3.30
2023-11-26T03:22:14.281Z,3.28
2023-11-26T03:24:41.073Z,3.50
2023-11-26T03:27:09.341Z,3.38
2023-11-26T03:29:36.201Z,3.97
2023-11-26T03:32:03.987Z,3.35
2023-11-26T03:34:30.801Z,3.50
2023-11-26T03:36:58.247Z,3.72
2023-11-26T03:39:25.824Z,3.30
2023-11-26T03:41:53.135Z,3.85
2023-11-26T03:44:20.553Z,3.28
2023-11-26T03:46:47.398Z,3.80
2023-11-26T03:49:14.186Z,3.63
2023-11-26T03:51:41.078Z,3.53
2023-11-26T03:54:09.727Z,3.47
2023-11-26T03:56:36.622Z,3.53
2023-11-26T03:59:03.550Z,3.30
2023-11-26T04:01:31.398Z,3.85
2023-11-26T04:04:00.348Z,3.75
2023-11-26T04:06:29.934Z,3.97
2023-11-26T04:08:56.793Z,3.30
2023-11-26T04:11:23.688Z,3.28
2023-11-26T04:13:50.492Z,3.30
2023-11-26T04:16:19.977Z,3.25
2023-11-26T04:18:47.220Z,3.45
2023-11-26T04:21:14.459Z,3.60
2023-11-26T04:23:41.245Z,3.03
2023-11-26T04:26:08.174Z,3.22
2023-11-26T04:28:35.339Z,3.28
2023-11-26T04:31:03.625Z,3.33
2023-11-26T04:33:30.545Z,3.40
2023-11-26T04:35:57.376Z,3.50
2023-11-26T04:38:24.250Z,3.10
2023-11-26T04:40:51.653Z,3.10
2023-11-26T04:43:18.549Z,3.30
2023-11-26T04:45:45.359Z,3.33
2023-11-26T04:48:12.266Z,2.90
2023-11-26T04:50:39.179Z,3.17
2023-11-26T04:53:07.087Z,3.60
2023-11-26T04:55:33.959Z,3.10
2023-11-26T04:58:00.871Z,2.85
2023-11-26T05:00:27.692Z,3.40
2023-11-26T05:02:54.918Z,3.55
2023-11-26T05:05:22.689Z,3.08
2023-11-26T05:07:49.632Z,2.75
2023-11-26T05:10:16.668Z,3.30
2023-11-26T05:12:44.666Z,3.10
2023-11-26T05:15:11.491Z,3.00
2023-11-26T05:17:38.376Z,3.00
2023-11-26T05:20:07.196Z,3.20
2023-11-26T05:22:34.550Z,3.13
2023-11-26T05:25:01.352Z,3.15
2023-11-26T05:27:28.233Z,2.70
2023-11-26T05:29:55.035Z,2.97
2023-11-26T05:32:21.836Z,2.72
2023-11-26T05:34:50.060Z,2.95
2023-11-26T05:37:16.980Z,3.08
2023-11-26T05:39:43.767Z,2.90
2023-11-26T05:42:10.622Z,3.08
2023-11-26T05:44:37.437Z,2.80
2023-11-26T05:47:04.517Z,2.85
2023-11-26T05:49:31.560Z,2.80
2023-11-26T05:51:59.183Z,3.25
2023-11-26T05:54:26.754Z,3.10
2023-11-26T05:56:53.643Z,2.70
2023-11-26T05:59:20.461Z,2.60
2023-11-26T06:01:47.335Z,2.97
2023-11-26T06:04:14.145Z,2.92
2023-11-26T06:06:41.017Z,2.92
2023-11-26T06:09:08.083Z,2.78
2023-11-26T06:11:34.891Z,2.85
2023-11-26T06:14:01.746Z,3.00
2023-11-26T06:16:28.622Z,2.60
2023-11-26T06:18:55.458Z,2.80
2023-11-26T06:21:23.035Z,2.80
2023-11-26T06:23:52.631Z,2.78
2023-11-26T06:26:21.542Z,2.83
2023-11-26T06:28:48.359Z,3.00
2023-11-26T06:31:25.643Z,2.50
2023-11-26T06:33:52.606Z,2.53
2023-11-26T06:36:20.773Z,3.03
2023-11-26T06:38:47.646Z,2.55
2023-11-26T06:41:28.980Z,2.70
2023-11-26T06:44:00.592Z,2.58
2023-11-26T06:46:29.514Z,2.70
2023-11-26T06:48:56.692Z,2.00
2023-11-26T06:51:23.829Z,2.50
2023-11-26T06:53:51.797Z,2.28
2023-11-26T06:56:18.854Z,2.55
2023-11-26T06:58:47.726Z,3.05
2023-11-26T07:01:15.169Z,2.28
2023-11-26T07:03:43.374Z,2.60
2023-11-26T07:06:11.764Z,2.45
2023-11-26T07:08:41.465Z,2.40
2023-11-26T07:11:18.390Z,2.20
2023-11-26T07:13:46.119Z,2.50
2023-11-26T07:16:13.110Z,2.70
2023-11-26T07:18:40.737Z,2.30
2023-11-26T07:21:07.847Z,2.22
2023-11-26T07:23:37.405Z,2.42
2023-11-26T07:26:12.249Z,2.10
2023-11-26T07:28:40.652Z,2.80
2023-11-26T07:31:20.979Z,2.40
2023-11-26T07:33:48.042Z,2.30
2023-11-26T07:36:18.399Z,2.45
2023-11-26T07:38:45.350Z,2.47
2023-11-26T07:41:12.246Z,2.40
2023-11-26T07:43:43.006Z,2.40
2023-11-26T07:46:10.964Z,2.45
2023-11-26T07:48:39.443Z,2.50
2023-11-26T07:51:07.263Z,2.50
2023-11-26T07:53:34.606Z,2.88
2023-11-26T07:56:01.815Z,2.10
2023-11-26T07:58:29.769Z,2.47
2023-11-26T08:00:56.864Z,2.22
2023-11-26T08:03:26.459Z,2.17
2023-11-26T08:08:23.735Z,2.20
2023-11-26T08:10:53.996Z,2.33
2023-11-26T08:13:24.098Z,2.13
2023-11-26T08:15:51.465Z,2.63
2023-11-26T08:18:18.514Z,2.05
2023-11-26T08:20:47.888Z,2.47
2023-11-26T08:23:14.836Z,2.30
2023-11-26T08:25:41.891Z,2.40
2023-11-26T08:28:08.957Z,2.10
2023-11-26T08:30:48.823Z,2.40
2023-11-26T08:33:22.189Z,2.20
2023-11-26T08:35:57.557Z,2.22
2023-11-26T08:38:26.152Z,2.20
2023-11-26T08:40:55.891Z,2.30
2023-11-26T08:43:23.737Z,2.20
2023-11-26T08:45:52.747Z,2.40
2023-11-26T08:48:20.072Z,2.20
2023-11-26T08:50:47.365Z,2.20
2023-11-26T08:53:14.560Z,2.40
2023-11-26T08:55:41.409Z,2.28
2023-11-26T08:58:08.413Z,2.38
2023-11-26T09:00:35.804Z,2.28
2023-11-26T09:03:02.677Z,2.20
2023-11-26T09:05:29.507Z,2.10
2023-11-26T09:07:56.387Z,2.28
2023-11-26T09:10:23.316Z,2.38
2023-11-26T09:12:50.180Z,2.28
2023-11-26T09:15:17.640Z,2.20
2023-11-26T09:17:44.513Z,2.33
2023-11-26T09:20:14.239Z,2.63
2023-11-26T09:22:41.493Z,3.42
2023-11-26T09:25:09.736Z,3.20
2023-11-26T09:27:37.070Z,3.33
2023-11-26T09:30:07.658Z,3.13
2023-11-26T09:32:34.645Z,3.10
2023-11-26T09:35:02.387Z,3.03
2023-11-26T09:37:32.443Z,3.13
2023-11-26T09:39:59.608Z,2.85
2023-11-26T09:42:27.787Z,3.28
2023-11-26T09:44:54.736Z,2.90
2023-11-26T09:47:21.670Z,3.08
2023-11-26T09:49:50.624Z,3.00
2023-11-26T09:52:18.310Z,2.90
2023-11-26T09:54:45.182Z,2.78
2023-11-26T09:57:13.040Z,2.90
2023-11-26T09:59:39.864Z,2.95
2023-11-26T10:02:13.247Z,2.97
2023-11-26T10:04:52.099Z,2.97
2023-11-26T10:07:33.571Z,2.90
2023-11-26T10:10:11.276Z,3.10
2023-11-26T10:13:00.163Z,2.50
2023-11-26T10:15:32.422Z,2.60
2023-11-26T10:18:04.993Z,2.40
2023-11-26T10:20:36.217Z,2.67
2023-11-26T10:23:03.675Z,2.55
2023-11-26T10:25:30.602Z,2.67
2023-11-26T10:27:57.811Z,2.75
2023-11-26T10:30:27.200Z,2.80
2023-11-26T10:33:00.926Z,3.08
2023-11-26T10:35:47.251Z,2.65
2023-11-26T10:38:14.790Z,2.70
2023-11-26T10:40:42.981Z,2.80
2023-11-26T10:43:11.023Z,2.58
2023-11-26T10:45:39.240Z,2.50
2023-11-26T10:48:10.255Z,3.25
2023-11-26T10:51:13.363Z,2.90
2023-11-26T10:54:36.423Z,2.70
2023-11-26T10:57:11.195Z,2.70
2023-11-26T10:59:44.084Z,2.60
2023-11-26T11:02:15.108Z,2.72
2023-11-26T11:04:47.470Z,2.80
2023-11-26T11:07:15.332Z,2.70
2023-11-26T11:10:08.962Z,3.28
2023-11-26T11:12:48.404Z,3.00
2023-11-26T11:15:17.364Z,2.70
2023-11-26T11:17:44.478Z,2.90
2023-11-26T11:20:11.813Z,2.92
2023-11-26T11:22:43.444Z,2.85
2023-11-26T11:25:13.338Z,2.70
2023-11-26T11:27:51.211Z,2.85
2023-11-26T11:30:33.632Z,3.17
2023-11-26T11:33:10.332Z,3.08
2023-11-26T11:35:37.587Z,3.10
2023-11-26T11:38:05.848Z,3.05
2023-11-26T11:41:01.282Z,3.03
2023-11-26T11:43:28.454Z,3.15
2023-11-26T11:45:55.620Z,2.80
2023-11-26T11:48:41.291Z,3.30
2023-11-26T11:51:30.183Z,2.70
2023-11-26T11:54:05.354Z,2.97
2023-11-26T11:56:32.341Z,2.70
2023-11-26T11:58:59.196Z,4.90
2023-11-26T12:01:26.605Z,4.28
2023-11-26T12:03:53.554Z,4.30
2023-11-26T12:06:22.525Z,4.05
2023-11-26T12:09:02.294Z,3.80
2023-11-26T12:11:29.211Z,3.85
2023-11-26T12:13:56.725Z,4.35
2023-11-26T12:16:24.679Z,3.95
2023-11-26T12:18:56.686Z,3.80
2023-11-26T12:21:23.815Z,3.60
2023-11-26T12:23:51.403Z,3.83
2023-11-26T12:26:18.268Z,4.35
2023-11-26T12:28:46.601Z,4.30
2023-11-26T12:31:14.533Z,3.85
2023-11-26T12:33:46.936Z,5.30
2023-11-26T12:36:14.725Z,3.88
2023-11-26T12:38:43.004Z,4.10
2023-11-26T12:41:13.228Z,4.10
2023-11-26T12:43:41.266Z,4.18
2023-11-26T12:46:18.233Z,4.22
2023-11-26T12:48:45.171Z,4.68
2023-11-26T12:51:17.864Z,3.83
2023-11-26T12:53:44.916Z,3.97
2023-11-26T12:56:11.752Z,3.65
2023-11-26T12:58:38.634Z,3.83
2023-11-26T13:01:06.342Z,3.90
2023-11-26T13:03:33.227Z,3.65
2023-11-26T13:06:10.183Z,3.55
2023-11-26T13:08:37.144Z,3.58
2023-11-26T13:11:07.390Z,3.50
2023-11-26T13:13:34.633Z,3.28
2023-11-26T13:16:04.041Z,3.30
2023-11-26T13:18:31.761Z,3.20
2023-11-26T13:21:02.175Z,3.42
2023-11-26T13:23:30.189Z,3.10
2023-11-26T13:25:58.204Z,3.10
2023-11-26T13:28:25.870Z,2.85
2023-11-26T13:30:53.385Z,3.00
2023-11-26T13:33:20.604Z,2.80
2023-11-26T13:35:47.986Z,3.10
2023-11-26T13:38:15.376Z,3.10
2023-11-26T13:40:43.945Z,3.15
2023-11-26T13:43:13.122Z,2.78
2023-11-26T13:45:45.634Z,2.58
2023-11-26T13:48:13.038Z,2.90
2023-11-26T13:50:40.720Z,3.10
2023-11-26T13:53:10.424Z,2.70
2023-11-26T13:55:37.474Z,2.50
2023-11-26T13:58:04.844Z,2.65
2023-11-26T14:00:35.567Z,2.90
2023-11-26T14:03:03.645Z,2.70
2023-11-26T14:05:30.979Z,2.70
2023-11-26T14:07:57.981Z,2.72
2023-11-26T14:10:28.613Z,2.85
2023-11-26T14:12:59.507Z,2.70
2023-11-26T14:15:27.846Z,2.67
2023-11-26T14:17:56.834Z,2.60
2023-11-26T14:20:23.926Z,2.40
2023-11-26T14:22:54.575Z,2.90
2023-11-26T14:25:21.638Z,2.65
2023-11-26T14:27:50.233Z,2.97
2023-11-26T14:30:19.511Z,2.77
2023-11-26T14:32:50.789Z,2.95
2023-11-26T14:35:18.129Z,3.03
2023-11-26T14:37:45.173Z,2.90
2023-11-26T14:40:14.166Z,2.90
2023-11-26T14:42:45.936Z,3.00
2023-11-26T14:45:15.015Z,3.05
2023-11-26T14:47:48.140Z,3.20
2023-11-26T14:50:15.151Z,3.10
2023-11-26T14:52:42.510Z,2.90
2023-11-26T14:55:14.660Z,3.00
2023-11-26T14:57:43.176Z,3.47
2023-11-26T15:00:11.486Z,3.00
2023-11-26T15:02:42.061Z,3.20
2023-11-26T15:05:09.464Z,3.13
2023-11-26T15:07:37.825Z,2.85
2023-11-26T15:10:05.547Z,3.08
2023-11-26T15:12:32.619Z,3.10
2023-11-26T15:14:59.554Z,2.97
2023-11-26T15:17:26.702Z,3.30
2023-11-26T15:19:54.160Z,3.30
2023-11-26T15:22:21.529Z,3.20
2023-11-26T15:24:49.581Z,2.95
2023-11-26T15:27:17.080Z,3.40
2023-11-26T15:29:45.447Z,2.90
2023-11-26T15:32:13.174Z,3.00
2023-11-26T15:34:40.557Z,3.10
2023-11-26T15:37:07.740Z,3.00
2023-11-26T15:39:34.693Z,3.50
2023-11-26T15:42:02.351Z,3.10
2023-11-26T15:44:30.201Z,3.88
2023-11-26T15:46:58.416Z,3.50
2023-11-26T15:49:26.524Z,3.90
2023-11-26T15:51:54.098Z,3.70
2023-11-26T15:54:21.137Z,4.07
2023-11-26T15:56:48.411Z,4.10
2023-11-26T15:59:15.435Z,4.20
2023-11-26T16:01:42.634Z,4.18
2023-11-26T16:04:12.194Z,4.32
2023-11-26T16:06:39.307Z,4.10
2023-11-26T16:09:06.918Z,4.40
2023-11-26T16:11:34.549Z,4.97
2023-11-26T16:14:01.792Z,4.90
2023-11-26T16:16:29.136Z,5.10
2023-11-26T16:18:56.751Z,5.63
2023-11-26T16:21:26.186Z,5.30
2023-11-26T16:23:57.638Z,5.43
2023-11-26T16:26:25.080Z,5.68
2023-11-26T16:28:52.188Z,6.20
2023-11-26T16:31:23.185Z,6.13
2023-11-26T16:33:53.365Z,6.93
2023-11-26T16:36:22.685Z,6.70
2023-11-26T16:38:49.967Z,6.63
2023-11-26T16:41:19.240Z,7.32
2023-11-26T16:43:48.316Z,7.32
2023-11-26T16:46:17.583Z,6.90
2023-11-26T16:48:45.988Z,7.45
2023-11-26T16:51:15.630Z,7.05
2023-11-26T16:53:42.895Z,7.50
2023-11-26T16:56:11.294Z,7.68
2023-11-26T16:58:39.216Z,7.68
2023-11-26T17:01:07.487Z,7.97
2023-11-26T17:03:35.382Z,7.72
2023-11-26T17:06:04.687Z,8.00
2023-11-26T17:08:32.615Z,7.70
2023-11-26T17:11:00.054Z,7.47
2023-11-26T17:13:27.740Z,7.60
2023-11-26T17:15:57.986Z,8.00
2023-11-26T17:18:25.061Z,7.95
2023-11-26T17:20:51.959Z,7.93
2023-11-26T17:23:19.221Z,7.28
2023-11-26T17:25:48.328Z,7.55
2023-11-26T17:28:20.401Z,7.82
2023-11-26T17:30:50.837Z,7.07
2023-11-26T17:33:19.357Z,7.60
2023-11-26T17:36:30.436Z,7.22
2023-11-26T17:38:55.461Z,7.20
2023-11-26T17:41:25.489Z,7.47
2023-11-26T17:43:54.913Z,7.50
2023-11-26T17:46:23.149Z,7.47
2023-11-26T17:48:51.435Z,7.18
2023-11-26T17:51:20.942Z,6.88
2023-11-26T17:53:48.841Z,6.47
2023-11-26T17:56:16.793Z,6.75
2023-11-26T17:58:44.005Z,6.30
2023-11-26T18:01:15.681Z,6.72
2023-11-26T18:03:43.040Z,7.00
2023-11-26T18:06:10.830Z,6.88
2023-11-26T18:08:38.299Z,6.43
2023-11-26T18:11:05.463Z,7.03
2023-11-26T18:13:33.196Z,7.22
2023-11-26T18:16:00.340Z,6.63
2023-11-26T18:18:27.301Z,7.18
2023-11-26T18:20:54.267Z,6.22
2023-11-26T18:23:21.345Z,6.60
2023-11-26T18:25:48.336Z,6.18
2023-11-26T18:28:15.342Z,6.72
2023-11-26T18:30:42.376Z,6.32
2023-11-26T18:33:09.384Z,6.35
2023-11-26T18:35:36.714Z,6.70
2023-11-26T18:38:03.671Z,6.78
2023-11-26T18:40:34.948Z,6.82
2023-11-26T18:43:06.169Z,6.40
2023-11-26T18:45:35.218Z,6.50
2023-11-26T18:48:08.313Z,6.40
2023-11-26T18:50:49.028Z,6.65
2023-11-26T18:53:16.213Z,6.53
2023-11-26T18:55:45.090Z,6.38
2023-11-26T19:01:22.004Z,6.25
2023-11-26T19:03:49.470Z,6.70
2023-11-26T19:06:19.616Z,6.97
2023-11-26T19:08:48.178Z,7.43
2023-11-26T19:11:15.418Z,6.63
2023-11-26T19:13:43.099Z,7.10
2023-11-26T19:16:14.409Z,6.70
2023-11-26T19:18:41.590Z,7.00
2023-11-26T19:21:08.730Z,6.88
2023-11-26T19:23:35.643Z,6.35
2023-11-26T19:26:02.687Z,6.95
2023-11-26T19:28:31.009Z,6.97
2023-11-26T19:30:59.916Z,7.05
2023-11-26T19:33:28.297Z,6.60
2023-11-26T19:35:55.298Z,6.57
2023-11-26T19:38:22.541Z,6.20
2023-11-26T19:40:49.684Z,6.88
2023-11-26T19:43:16.738Z,6.65
2023-11-26T19:45:43.940Z,7.00
2023-11-26T19:48:11.053Z,6.70
2023-11-26T19:50:39.868Z,7.05
2023-11-26T19:53:08.452Z,6.97
2023-11-26T19:55:38.776Z,6.90
2023-11-26T20:01:49.380Z,7.38
2023-11-26T20:04:16.724Z,7.15
2023-11-26T20:06:45.193Z,6.80
2023-11-26T20:09:12.391Z,7.50
2023-11-26T20:11:39.385Z,7.60
2023-11-26T20:14:06.420Z,6.80
2023-11-26T20:16:33.381Z,7.03
2023-11-26T20:19:00.529Z,7.13
2023-11-26T20:21:27.879Z,7.10
2023-11-26T20:23:54.914Z,6.43
2023-11-26T20:26:22.330Z,6.70
2023-11-26T20:28:49.670Z,6.93
2023-11-26T20:31:16.818Z,7.05
2023-11-26T20:33:44.050Z,6.78
2023-11-26T20:36:21.967Z,6.88
2023-11-26T20:38:49.423Z,6.88
2023-11-26T20:41:16.760Z,6.75
2023-11-26T20:43:44.372Z,7.50
2023-11-26T20:46:21.350Z,6.75
2023-11-26T20:48:49.794Z,6.82
2023-11-26T20:51:21.992Z,7.10
2023-11-26T20:53:49.308Z,6.43
2023-11-26T20:56:26.870Z,6.97
2023-11-26T20:58:59.501Z,6.63
2023-11-26T21:01:28.114Z,6.85
2023-11-26T21:03:55.487Z,6.65
2023-11-26T21:06:22.861Z,6.68
2023-11-26T21:08:50.038Z,6.57
2023-11-26T21:11:17.078Z,6.75
2023-11-26T21:13:44.252Z,6.60
2023-11-26T21:16:11.452Z,6.88
2023-11-26T21:18:39.403Z,6.25
2023-11-26T21:21:06.316Z,6.53
2023-11-26T21:23:33.218Z,6.50
2023-11-26T21:26:00.155Z,6.78
2023-11-26T21:28:27.116Z,6.53
2023-11-26T21:30:54.131Z,6.72
2023-11-26T21:33:21.201Z,7.10
2023-11-26T21:35:48.196Z,6.80
2023-11-26T21:38:15.460Z,6.60
2023-11-26T21:40:50.237Z,5.88
2023-11-26T21:43:24.479Z,6.60
2023-11-26T21:45:52.509Z,6.65
2023-11-26T21:48:20.448Z,6.60
2023-11-26T21:50:47.886Z,6.90
2023-11-26T21:53:14.848Z,6.85
2023-11-26T21:55:41.786Z,6.82
2023-11-26T21:58:08.769Z,6.82
2023-11-26T22:00:35.931Z,6.60
2023-11-26T22:03:03.202Z,6.78
2023-11-26T22:05:30.274Z,6.55
2023-11-26T22:07:58.451Z,6.93
2023-11-26T22:10:25.403Z,6.43
2023-11-26T22:12:52.327Z,6.50
2023-11-26T22:15:19.803Z,6.60
2023-11-26T22:17:46.808Z,6.85
2023-11-26T22:20:14.010Z,6.60
2023-11-26T22:22:43.472Z,6.55
2023-11-26T22:25:11.352Z,6.47
2023-11-26T22:27:38.366Z,6.75
2023-11-26T22:30:07.421Z,6.80
2023-11-26T22:32:36.604Z,6.60
2023-11-26T22:35:03.872Z,7.32
2023-11-26T22:37:31.013Z,6.78
2023-11-26T22:39:58.244Z,6.55
2023-11-26T22:42:25.914Z,7.03
2023-11-26T22:44:52.908Z,6.65
2023-11-26T22:47:20.028Z,6.95
2023-11-26T22:49:49.281Z,6.90
2023-11-26T22:52:16.217Z,6.82
2023-11-26T22:54:43.245Z,6.82
2023-11-26T22:57:10.180Z,7.30
2023-11-26T22:59:37.113Z,7.25
2023-11-26T23:02:08.204Z,6.90
2023-11-26T23:04:35.997Z,6.65
2023-11-26T23:07:03.321Z,6.28
2023-11-26T23:09:30.510Z,6.78
2023-11-26T23:11:57.591Z,6.43
2023-11-26T23:14:24.869Z,6.40
2023-11-26T23:16:52.382Z,6.60
2023-11-26T23:19:19.659Z,6.60
2023-11-26T23:21:47.183Z,6.88
2023-11-26T23:24:14.284Z,6.53
2023-11-26T23:26:41.217Z,6.07
2023-11-26T23:29:08.165Z,6.18
2023-11-26T23:31:35.101Z,6.35
2023-11-26T23:34:02.090Z,6.25
2023-11-26T23:36:29.220Z,6.25
2023-11-26T23:38:56.215Z,6.28
2023-11-26T23:41:23.909Z,6.57
2023-11-26T23:43:50.913Z,6.65
2023-11-26T23:46:17.922Z,6.53
2023-11-26T23:48:44.963Z,6.45
2023-11-26T23:51:12.015Z,6.57
2023-11-26T23:53:39.378Z,6.72
2023-11-26T23:56:06.911Z,6.00
2023-11-26T23:58:34.196Z,6.18
